Time;durP1;ratioP1;P1;durP2;ratioP2;P2;SDS_P1;SDS_P2;PMS_P1;PMS_P2;Temp;Humidity;BMP_temperature;BMP_pressure;BME280_temperature;BME280_humidity;BME280_pressure;Samples;Min_cycle;Max_cycle;Signal;HPM_P1;HPM_P2
2023/12/15 00:00:33;;;;;;;3.20;2.40;;;4.00;99.90;;;;;;5013506;28;20204;-76
2023/12/15 00:03:00;;;;;;;5.43;2.58;;;4.00;99.90;;;;;;5013078;28;20205;-76
2023/12/15 00:05:28;;;;;;;4.25;2.80;;;4.00;99.90;;;;;;5013488;28;20203;-76
2023/12/15 00:07:55;;;;;;;6.75;3.40;;;4.00;99.90;;;;;;5013269;28;20213;-76
2023/12/15 00:10:21;;;;;;;2.17;1.88;;;4.00;99.90;;;;;;5013048;28;20630;-76
2023/12/15 00:12:48;;;;;;;2.42;1.92;;;4.00;99.90;;;;;;5013307;28;20279;-76
2023/12/15 04:30:57;;;;;;;4.35;1.77;;;3.40;99.90;;;;;;5906009;22;20325;-91
2023/12/15 04:33:24;;;;;;;3.60;2.30;;;3.40;99.90;;;;;;4986922;28;20236;-90
2023/12/15 04:35:51;;;;;;;4.38;2.70;;;3.40;99.90;;;;;;4994099;28;20575;-90
2023/12/15 04:38:18;;;;;;;4.13;2.85;;;3.40;99.90;;;;;;4994526;28;20216;-91
2023/12/15 04:40:45;;;;;;;5.75;3.22;;;3.40;99.90;;;;;;4988878;28;20239;-90
2023/12/15 04:43:15;;;;;;;3.45;3.08;;;3.40;99.90;;;;;;4980611;28;20213;-91
2023/12/15 04:54:52;;;;;;;6.05;2.55;;;3.50;99.90;;;;;;5013513;28;20292;-75
2023/12/15 04:57:18;;;;;;;3.70;2.47;;;3.50;99.90;;;;;;5012101;28;20628;-74
2023/12/15 04:59:45;;;;;;;3.95;2.90;;;3.50;99.90;;;;;;5012041;28;20208;-74
2023/12/15 05:02:12;;;;;;;4.30;2.40;;;3.50;99.90;;;;;;5012322;28;20626;-75
2023/12/15 05:04:39;;;;;;;2.85;2.08;;;3.50;99.90;;;;;;5011747;28;20271;-75
2023/12/15 05:07:06;;;;;;;3.70;3.40;;;3.60;99.90;;;;;;5013067;28;20220;-74
2023/12/15 05:09:33;;;;;;;4.00;3.38;;;3.50;99.90;;;;;;5015635;28;20208;-76
2023/12/15 05:12:01;;;;;;;4.50;2.85;;;3.60;99.90;;;;;;5015378;28;20720;-74
2023/12/15 05:14:28;;;;;;;3.60;2.90;;;3.60;99.90;;;;;;5017119;28;20211;-74
2023/12/15 05:16:55;;;;;;;4.85;2.47;;;3.60;99.90;;;;;;5012545;28;20209;-74
2023/12/15 05:19:21;;;;;;;2.90;2.10;;;3.60;99.90;;;;;;5016753;28;20211;-74
2023/12/15 05:21:48;;;;;;;4.70;3.30;;;3.60;99.90;;;;;;5015275;28;20459;-76
2023/12/15 05:24:15;;;;;;;3.65;2.78;;;3.60;99.90;;;;;;5018701;28;20212;-77
2023/12/15 05:26:42;;;;;;;12.27;3.20;;;3.60;99.90;;;;;;5017371;28;22209;-76
2023/12/15 05:29:10;;;;;;;4.63;2.75;;;3.60;99.90;;;;;;5021000;28;20233;-77
2023/12/15 05:31:37;;;;;;;2.28;1.98;;;3.60;99.90;;;;;;5022994;28;20270;-77
2023/12/15 05:34:04;;;;;;;4.35;3.03;;;3.60;99.90;;;;;;5021644;28;20205;-77
2023/12/15 05:36:31;;;;;;;5.03;2.80;;;3.60;99.90;;;;;;5024120;28;20703;-77
2023/12/15 05:38:59;;;;;;;3.70;2.92;;;3.60;99.90;;;;;;5021980;28;20308;-77
2023/12/15 05:41:25;;;;;;;3.97;2.25;;;3.60;99.90;;;;;;5024483;28;20248;-77
2023/12/15 05:43:52;;;;;;;3.15;2.10;;;3.60;99.90;;;;;;5021062;28;20212;-77
2023/12/15 05:46:20;;;;;;;3.47;2.55;;;3.60;99.90;;;;;;5026994;28;20232;-77
2023/12/15 05:48:47;;;;;;;3.13;2.60;;;3.70;99.90;;;;;;5020966;28;20199;-77
2023/12/15 05:51:14;;;;;;;3.92;2.45;;;3.60;99.90;;;;;;5022792;28;20756;-77
2023/12/15 05:53:40;;;;;;;2.50;2.30;;;3.60;99.90;;;;;;5011158;28;20229;-77
2023/12/15 05:56:08;;;;;;;4.47;2.88;;;3.60;99.90;;;;;;5001855;28;20218;-77
2023/12/15 05:58:36;;;;;;;7.53;2.65;;;3.70;99.90;;;;;;5002573;28;20216;-77
2023/12/15 06:01:02;;;;;;;4.90;2.47;;;3.70;99.90;;;;;;5001796;28;20606;-77
2023/12/15 06:03:30;;;;;;;5.15;2.80;;;3.70;99.90;;;;;;5004277;28;20206;-77
2023/12/15 06:05:57;;;;;;;2.78;2.50;;;3.70;99.90;;;;;;5001134;28;20210;-78
2023/12/15 06:08:24;;;;;;;2.45;2.15;;;3.70;99.90;;;;;;4996846;28;20210;-77
2023/12/15 06:10:51;;;;;;;3.05;2.50;;;3.70;99.90;;;;;;5001206;28;20222;-77
2023/12/15 06:13:17;;;;;;;3.90;2.97;;;3.70;99.90;;;;;;5004122;28;20240;-78
2023/12/15 06:15:44;;;;;;;3.53;2.45;;;3.70;99.90;;;;;;5000355;28;20696;-78
2023/12/15 06:18:11;;;;;;;3.67;2.55;;;3.70;99.90;;;;;;5001696;28;20668;-78
2023/12/15 06:20:39;;;;;;;4.25;3.20;;;3.70;99.90;;;;;;5002079;28;20223;-78
2023/12/15 06:23:06;;;;;;;6.00;2.75;;;3.70;99.90;;;;;;5001283;28;20592;-78
2023/12/15 06:25:33;;;;;;;4.85;3.20;;;3.70;99.90;;;;;;4998719;28;20216;-78
2023/12/15 06:27:59;;;;;;;6.35;3.47;;;3.70;99.90;;;;;;4992941;28;20220;-78
2023/12/15 06:30:26;;;;;;;4.15;3.03;;;3.70;99.90;;;;;;5002731;28;20763;-78
2023/12/15 06:32:53;;;;;;;3.70;3.38;;;3.70;99.90;;;;;;4999592;28;20225;-77
2023/12/15 06:35:20;;;;;;;5.10;3.85;;;3.70;99.90;;;;;;5001731;28;20213;-78
2023/12/15 06:37:50;;;;;;;4.38;2.95;;;3.70;99.90;;;;;;4999238;28;20242;-78
2023/12/15 06:40:17;;;;;;;3.20;2.42;;;3.60;99.90;;;;;;5002035;28;20210;-78
2023/12/15 06:42:44;;;;;;;5.38;3.28;;;3.60;99.90;;;;;;5001078;28;20204;-77
2023/12/15 06:45:11;;;;;;;3.05;2.67;;;3.60;99.90;;;;;;5001575;28;20217;-77
2023/12/15 06:47:38;;;;;;;4.35;2.72;;;3.60;99.90;;;;;;5001907;28;20225;-77
2023/12/15 06:50:06;;;;;;;4.05;3.20;;;3.60;99.90;;;;;;5000470;28;20215;-79
2023/12/15 06:52:34;;;;;;;4.35;2.20;;;3.60;99.90;;;;;;5004710;28;20257;-78
2023/12/15 06:55:03;;;;;;;3.17;2.75;;;3.60;99.90;;;;;;5002428;28;20213;-74
2023/12/15 06:57:31;;;;;;;5.28;3.40;;;3.60;99.90;;;;;;5007611;28;20260;-78
2023/12/15 06:59:57;;;;;;;6.22;2.70;;;3.60;99.90;;;;;;5002554;28;20236;-77
2023/12/15 07:02:24;;;;;;;4.22;2.60;;;3.60;99.90;;;;;;5001319;28;20229;-78
2023/12/15 07:04:51;;;;;;;4.70;2.35;;;3.60;99.90;;;;;;5007747;28;20287;-76
2023/12/15 07:07:18;;;;;;;2.58;2.38;;;3.60;99.90;;;;;;5007603;28;20223;-78
2023/12/15 07:09:45;;;;;;;5.10;2.88;;;3.70;99.90;;;;;;5007621;28;20237;-78
2023/12/15 07:12:13;;;;;;;5.85;3.30;;;3.70;99.90;;;;;;5011171;28;20325;-77
2023/12/15 07:14:42;;;;;;;2.47;2.05;;;3.70;99.90;;;;;;5010646;28;20240;-77
2023/12/15 07:17:09;;;;;;;2.83;2.60;;;3.70;99.90;;;;;;5008981;28;20224;-78
2023/12/15 07:19:36;;;;;;;5.85;3.80;;;3.70;99.90;;;;;;5010815;28;20274;-78
2023/12/15 07:22:03;;;;;;;4.45;2.85;;;3.70;99.90;;;;;;5008896;28;20251;-78
2023/12/15 07:24:30;;;;;;;5.60;3.70;;;3.70;99.90;;;;;;5013101;28;20216;-77
2023/12/15 07:26:57;;;;;;;3.92;2.85;;;3.70;99.90;;;;;;5010762;28;20203;-77
2023/12/15 07:29:25;;;;;;;4.63;2.78;;;3.80;99.90;;;;;;5006947;28;20616;-77
2023/12/15 07:31:52;;;;;;;4.47;3.47;;;3.80;99.90;;;;;;5004255;28;20228;-75
2023/12/15 07:34:19;;;;;;;3.45;3.08;;;3.70;99.90;;;;;;5007297;28;20240;-74
2023/12/15 07:36:47;;;;;;;3.50;2.95;;;3.70;99.90;;;;;;5006384;28;20217;-75
2023/12/15 07:39:20;;;;;;;5.00;3.33;;;3.70;99.90;;;;;;5004676;28;20584;-76
2023/12/15 07:41:47;;;;;;;3.55;2.67;;;3.70;99.90;;;;;;5003761;28;20236;-74
2023/12/15 07:44:14;;;;;;;4.25;3.20;;;3.70;99.90;;;;;;5007362;28;20243;-75
2023/12/15 07:46:42;;;;;;;4.35;3.17;;;3.80;99.90;;;;;;5007129;28;20207;-74
2023/12/15 07:49:09;;;;;;;3.33;3.03;;;3.80;99.90;;;;;;5005720;28;20216;-75
2023/12/15 07:51:36;;;;;;;3.65;2.95;;;3.80;99.90;;;;;;5008165;28;20229;-74
2023/12/15 07:54:03;;;;;;;3.72;3.35;;;3.90;99.90;;;;;;5002062;28;20772;-78
2023/12/15 07:56:33;;;;;;;6.10;2.78;;;3.90;99.90;;;;;;5008308;28;20217;-77
2023/12/15 07:59:06;;;;;;;4.57;3.42;;;3.90;99.90;;;;;;5005136;28;20298;-76
2023/12/15 08:01:35;;;;;;;3.65;2.33;;;4.00;99.90;;;;;;5012225;28;20230;-77
2023/12/15 08:04:17;;;;;;;5.07;2.95;;;3.90;99.90;;;;;;5011267;28;20206;-77
2023/12/15 08:06:58;;;;;;;4.25;2.30;;;3.90;99.90;;;;;;5008658;28;20217;-75
2023/12/15 08:09:30;;;;;;;5.20;2.55;;;4.00;99.90;;;;;;4998717;28;20214;-77
2023/12/15 08:11:57;;;;;;;4.90;3.20;;;4.10;99.90;;;;;;5005954;28;20237;-77
2023/12/15 08:14:26;;;;;;;4.30;3.20;;;4.00;99.90;;;;;;4997673;28;20232;-76
2023/12/15 08:16:53;;;;;;;2.65;2.20;;;4.00;99.90;;;;;;5006342;28;20288;-77
2023/12/15 08:19:22;;;;;;;5.53;3.90;;;4.00;99.90;;;;;;5007292;28;20676;-76
2023/12/15 08:21:48;;;;;;;3.55;2.50;;;4.10;99.90;;;;;;5006933;28;20244;-76
2023/12/15 08:24:15;;;;;;;5.00;2.72;;;4.10;99.90;;;;;;5007737;28;20728;-77
2023/12/15 08:26:42;;;;;;;5.07;2.83;;;4.20;99.90;;;;;;5004839;28;20212;-77
2023/12/15 08:29:09;;;;;;;4.55;3.05;;;4.20;99.90;;;;;;5006255;28;20686;-77
2023/12/15 08:31:37;;;;;;;7.05;3.58;;;4.20;99.90;;;;;;5008950;28;20231;-78
2023/12/15 08:34:04;;;;;;;4.40;2.88;;;4.30;99.90;;;;;;5005818;28;20223;-76
2023/12/15 08:36:32;;;;;;;3.88;2.75;;;4.20;99.90;;;;;;5008968;28;20208;-77
2023/12/15 08:38:59;;;;;;;5.78;3.78;;;4.30;99.90;;;;;;5005945;28;20203;-76
2023/12/15 08:41:26;;;;;;;5.25;3.15;;;4.30;99.90;;;;;;5009411;28;20233;-75
2023/12/15 08:43:53;;;;;;;4.57;2.80;;;4.30;99.90;;;;;;5007063;28;20206;-77
2023/12/15 08:46:19;;;;;;;4.93;3.35;;;4.30;99.90;;;;;;5008347;28;20206;-75
2023/12/15 08:48:46;;;;;;;3.58;2.92;;;4.30;99.90;;;;;;5006958;28;20214;-76
2023/12/15 08:51:13;;;;;;;7.18;3.63;;;4.30;99.90;;;;;;5007010;28;20231;-76
2023/12/15 08:53:41;;;;;;;5.35;3.95;;;4.30;99.90;;;;;;5009708;28;20222;-75
2023/12/15 08:56:09;;;;;;;5.45;2.97;;;4.20;99.90;;;;;;5004679;28;20269;-76
2023/12/15 08:58:36;;;;;;;5.32;3.25;;;4.30;99.90;;;;;;5010943;28;20748;-75
2023/12/15 09:01:03;;;;;;;7.55;3.78;;;4.30;99.90;;;;;;5006609;28;20320;-76
2023/12/15 09:03:31;;;;;;;6.00;4.57;;;4.30;99.90;;;;;;5009089;28;20233;-76
2023/12/15 09:05:57;;;;;;;7.38;4.18;;;4.50;99.90;;;;;;5008699;28;20297;-76
2023/12/15 09:08:27;;;;;;;6.25;3.78;;;4.60;99.90;;;;;;4997201;28;20375;-74
2023/12/15 09:10:55;;;;;;;4.38;3.40;;;4.80;99.90;;;;;;5006927;28;20234;-73
2023/12/15 09:13:22;;;;;;;6.95;4.40;;;4.80;99.90;;;;;;5009012;28;20732;-75
2023/12/15 09:15:49;;;;;;;4.68;3.30;;;5.00;99.90;;;;;;5008089;28;20206;-75
2023/12/15 09:18:16;;;;;;;7.32;3.88;;;5.10;99.90;;;;;;5006755;28;20730;-76
2023/12/15 09:20:44;;;;;;;6.05;4.45;;;5.10;99.90;;;;;;5008466;28;20222;-76
2023/12/15 09:23:11;;;;;;;4.10;3.25;;;5.00;99.90;;;;;;5008894;28;20215;-76
2023/12/15 09:25:38;;;;;;;5.78;4.15;;;5.00;99.90;;;;;;5008689;28;20213;-76
2023/12/15 09:28:06;;;;;;;4.10;3.65;;;5.00;99.90;;;;;;5006475;28;20304;-75
2023/12/15 09:30:34;;;;;;;3.83;3.00;;;5.30;99.90;;;;;;5000629;28;20297;-75
2023/12/15 09:33:01;;;;;;;7.78;4.32;;;5.20;99.90;;;;;;5006504;28;20210;-76
2023/12/15 09:35:28;;;;;;;3.95;3.17;;;5.30;99.90;;;;;;5008449;28;20210;-76
2023/12/15 09:37:55;;;;;;;4.50;3.45;;;5.30;99.90;;;;;;5007322;28;20199;-76
2023/12/15 09:40:24;;;;;;;5.55;3.30;;;5.30;99.90;;;;;;4999886;28;20579;-75
2023/12/15 09:42:50;;;;;;;4.15;3.50;;;5.40;99.90;;;;;;5003951;28;20239;-76
2023/12/15 09:45:19;;;;;;;5.65;3.80;;;5.30;99.90;;;;;;5008063;28;20216;-76
2023/12/15 09:47:47;;;;;;;6.65;3.72;;;5.40;99.90;;;;;;5008363;28;20680;-76
2023/12/15 09:50:16;;;;;;;7.57;3.65;;;5.40;99.90;;;;;;5001427;28;20208;-76
2023/12/15 09:52:43;;;;;;;4.20;3.25;;;5.50;99.90;;;;;;5008883;28;20213;-75
2023/12/15 09:55:11;;;;;;;5.50;3.85;;;5.60;99.90;;;;;;5006669;28;20227;-76
2023/12/15 09:57:39;;;;;;;5.40;4.20;;;5.70;99.90;;;;;;5008991;28;20207;-76
2023/12/15 10:00:07;;;;;;;5.40;3.92;;;6.00;99.90;;;;;;5006860;28;20203;-75
2023/12/15 10:02:36;;;;;;;6.95;3.92;;;6.10;99.90;;;;;;5008665;28;20610;-76
2023/12/15 10:05:03;;;;;;;4.70;3.92;;;6.30;99.90;;;;;;5007401;28;20203;-75
2023/12/15 10:07:30;;;;;;;3.88;3.42;;;6.50;99.90;;;;;;5008760;28;20202;-76
2023/12/15 10:09:57;;;;;;;4.80;3.70;;;6.70;99.90;;;;;;5001658;28;20330;-75
2023/12/15 10:12:25;;;;;;;5.65;4.32;;;7.10;99.90;;;;;;4996574;28;20218;-76
2023/12/15 10:14:52;;;;;;;6.80;4.15;;;7.60;99.90;;;;;;5008779;28;20222;-77
2023/12/15 10:17:19;;;;;;;4.97;3.72;;;8.30;99.90;;;;;;5008514;28;20218;-77
2023/12/15 10:19:48;;;;;;;4.45;3.47;;;8.90;99.90;;;;;;5008664;28;20205;-76
2023/12/15 10:22:15;;;;;;;4.60;3.40;;;9.00;99.90;;;;;;5008272;28;20258;-76
2023/12/15 10:24:41;;;;;;;7.25;3.92;;;9.00;99.90;;;;;;5009858;28;20203;-76
2023/12/15 10:27:08;;;;;;;4.45;3.92;;;9.00;99.90;;;;;;5008290;28;20210;-76
2023/12/15 10:29:38;;;;;;;7.03;3.72;;;9.00;99.90;;;;;;5010397;28;20681;-76
2023/12/15 10:32:06;;;;;;;7.68;3.33;;;8.90;99.90;;;;;;5008133;28;20857;-76
2023/12/15 10:34:33;;;;;;;3.00;2.67;;;8.70;99.90;;;;;;5009985;28;20223;-76
2023/12/15 10:37:02;;;;;;;3.67;3.20;;;8.60;99.90;;;;;;5002246;28;20255;-76
2023/12/15 10:39:29;;;;;;;4.78;4.28;;;8.60;99.90;;;;;;5010540;28;20207;-76
2023/12/15 10:41:56;;;;;;;4.55;3.10;;;8.60;99.90;;;;;;5009557;28;20738;-77
2023/12/15 10:44:25;;;;;;;5.28;3.15;;;8.60;99.90;;;;;;4995976;28;20678;-75
2023/12/15 10:46:53;;;;;;;3.75;3.10;;;8.60;99.90;;;;;;5004847;28;20202;-76
2023/12/15 10:49:21;;;;;;;4.25;3.45;;;8.60;99.90;;;;;;5008258;28;20214;-77
2023/12/15 10:51:48;;;;;;;5.05;3.70;;;8.70;99.90;;;;;;5010914;28;20223;-77
2023/12/15 10:54:18;;;;;;;3.00;2.65;;;8.70;99.90;;;;;;5010046;28;20220;-77
2023/12/15 10:56:47;;;;;;;4.53;2.80;;;8.60;99.90;;;;;;5011577;28;20231;-77
2023/12/15 10:59:15;;;;;;;4.90;2.72;;;8.40;99.90;;;;;;5010652;28;20243;-77
2023/12/15 11:01:46;;;;;;;6.38;3.78;;;8.30;99.90;;;;;;5013211;28;20223;-77
2023/12/15 11:04:22;;;;;;;3.83;3.30;;;8.20;99.90;;;;;;5014801;28;20210;-77
2023/12/15 11:06:50;;;;;;;3.47;3.17;;;8.10;99.90;;;;;;5015230;28;20281;-77
2023/12/15 11:09:30;;;;;;;3.40;3.05;;;8.10;99.90;;;;;;5015193;28;20532;-77
2023/12/15 11:12:22;;;;;;;7.25;2.95;;;7.80;99.90;;;;;;5015357;28;20222;-77
2023/12/15 11:14:53;;;;;;;4.22;3.83;;;7.70;99.90;;;;;;5008190;28;20223;-76
2023/12/15 11:17:20;;;;;;;3.88;2.97;;;7.50;99.90;;;;;;5015476;28;20258;-77
2023/12/15 11:19:50;;;;;;;4.72;3.42;;;7.30;99.90;;;;;;5015077;28;20213;-75
2023/12/15 11:22:18;;;;;;;4.07;2.88;;;7.30;99.90;;;;;;5014774;28;20281;-76
2023/12/15 11:24:46;;;;;;;4.50;3.10;;;7.40;99.90;;;;;;5009993;28;20234;-76
2023/12/15 11:27:14;;;;;;;5.70;3.65;;;7.40;99.90;;;;;;5014647;28;20230;-75
2023/12/15 11:29:41;;;;;;;4.82;3.05;;;7.60;99.90;;;;;;5014943;28;20211;-76
2023/12/15 11:32:34;;;;;;;4.93;3.28;;;7.70;99.90;;;;;;5015064;28;20234;-76
2023/12/15 11:35:01;;;;;;;3.15;2.90;;;7.80;99.90;;;;;;4996234;28;20250;-76
2023/12/15 11:37:29;;;;;;;4.25;2.75;;;7.90;99.90;;;;;;5003273;28;20214;-76
2023/12/15 11:39:58;;;;;;;2.75;2.55;;;8.00;99.90;;;;;;4995529;28;20225;-76
2023/12/15 11:42:25;;;;;;;3.70;2.63;;;7.90;99.90;;;;;;4995969;28;20811;-76
2023/12/15 11:44:52;;;;;;;8.15;3.03;;;7.90;99.90;;;;;;4996372;28;20195;-76
2023/12/15 11:47:19;;;;;;;2.80;2.50;;;7.80;99.90;;;;;;4995921;28;20244;-76
2023/12/15 11:49:46;;;;;;;5.10;3.05;;;7.70;99.90;;;;;;4996228;28;20214;-75
2023/12/15 11:52:14;;;;;;;5.10;2.72;;;7.80;99.90;;;;;;4994056;28;20231;-76
2023/12/15 11:54:41;;;;;;;2.78;2.35;;;7.80;99.90;;;;;;4982846;28;20334;-76
2023/12/15 11:57:10;;;;;;;2.97;2.33;;;7.90;99.90;;;;;;4995893;28;20217;-75
2023/12/15 11:59:40;;;;;;;3.33;2.90;;;7.90;99.90;;;;;;5003278;28;20208;-75
2023/12/15 12:02:07;;;;;;;3.90;2.50;;;7.80;99.90;;;;;;4996039;28;20238;-76
2023/12/15 12:04:33;;;;;;;2.55;2.25;;;7.80;99.90;;;;;;4996201;28;20571;-77
2023/12/15 12:07:02;;;;;;;4.35;2.33;;;7.70;99.90;;;;;;4995298;28;20215;-77
2023/12/15 12:09:29;;;;;;;3.35;2.78;;;7.80;99.90;;;;;;4994447;28;20208;-77
2023/12/15 12:11:57;;;;;;;2.42;2.22;;;7.90;99.90;;;;;;4994637;28;20308;-76
2023/12/15 12:14:27;;;;;;;3.17;2.70;;;7.90;99.90;;;;;;4993359;28;20255;-76
2023/12/15 12:16:55;;;;;;;4.13;2.63;;;7.90;99.90;;;;;;4995749;28;20203;-76
2023/12/15 12:19:22;;;;;;;3.67;2.40;;;8.00;99.90;;;;;;4995325;28;20301;-75
2023/12/15 12:21:52;;;;;;;3.05;2.40;;;8.00;99.90;;;;;;4995242;28;20655;-76
2023/12/15 12:24:20;;;;;;;3.58;2.63;;;8.10;99.90;;;;;;4996473;28;20207;-76
2023/12/15 12:26:47;;;;;;;2.83;2.53;;;8.20;99.90;;;;;;4995710;28;20204;-79
2023/12/15 12:29:14;;;;;;;2.28;1.98;;;8.30;99.90;;;;;;4997670;28;20208;-77
2023/12/15 12:31:42;;;;;;;2.60;1.73;;;8.30;99.90;;;;;;5006572;28;20221;-77
2023/12/15 12:34:09;;;;;;;2.78;2.25;;;8.30;99.90;;;;;;4996902;28;20310;-77
2023/12/15 12:36:36;;;;;;;2.17;1.75;;;8.20;99.90;;;;;;5002909;28;20239;-75
2023/12/15 12:39:06;;;;;;;2.20;1.80;;;8.10;99.90;;;;;;4995772;28;20262;-75
2023/12/15 12:41:33;;;;;;;4.43;2.03;;;7.90;99.90;;;;;;5002199;28;20251;-73
2023/12/15 12:43:59;;;;;;;5.70;2.25;;;7.80;99.90;;;;;;4999048;28;20204;-74
2023/12/15 12:46:26;;;;;;;2.90;2.50;;;7.70;99.90;;;;;;4995522;28;20207;-75
2023/12/15 12:48:57;;;;;;;2.10;1.90;;;7.50;99.90;;;;;;4995377;28;20210;-75
2023/12/15 12:51:24;;;;;;;2.50;2.05;;;7.50;99.90;;;;;;4994357;28;20226;-74
2023/12/15 12:53:50;;;;;;;2.05;1.77;;;7.40;99.90;;;;;;5005903;28;20217;-75
2023/12/15 12:56:17;;;;;;;2.63;1.92;;;7.40;99.90;;;;;;5005299;28;20212;-74
2023/12/15 12:58:44;;;;;;;1.58;1.48;;;7.30;99.90;;;;;;5012513;28;20206;-75
2023/12/15 13:01:11;;;;;;;2.83;2.30;;;7.20;99.90;;;;;;5010369;28;20234;-75
2023/12/15 13:03:38;;;;;;;3.38;2.63;;;7.10;99.90;;;;;;5013141;28;20206;-73
2023/12/15 13:06:08;;;;;;;3.40;2.47;;;7.10;99.90;;;;;;5011610;28;20199;-73
2023/12/15 13:08:35;;;;;;;2.20;1.98;;;7.00;99.90;;;;;;4993641;28;20207;-76
2023/12/15 13:11:02;;;;;;;2.35;1.83;;;7.00;99.90;;;;;;5012137;28;20226;-75
2023/12/15 13:13:28;;;;;;;2.35;1.90;;;7.10;99.90;;;;;;5012402;28;20222;-74
2023/12/15 13:15:55;;;;;;;3.83;2.75;;;7.00;99.90;;;;;;5012547;28;20245;-75
2023/12/15 13:18:22;;;;;;;2.50;1.85;;;7.00;99.90;;;;;;5006408;28;20214;-75
2023/12/15 13:20:49;;;;;;;3.33;1.73;;;7.00;99.90;;;;;;5012354;28;20250;-75
2023/12/15 13:23:17;;;;;;;1.90;1.52;;;7.10;99.90;;;;;;5011940;28;20288;-76
2023/12/15 13:25:43;;;;;;;2.35;1.83;;;7.10;99.90;;;;;;5012105;28;20199;-75
2023/12/15 13:28:10;;;;;;;2.95;1.33;;;7.10;99.90;;;;;;5011913;28;20209;-74
2023/12/15 13:30:37;;;;;;;2.55;2.10;;;7.10;99.90;;;;;;5011900;28;20226;-76
2023/12/15 13:33:04;;;;;;;2.38;2.00;;;7.20;99.90;;;;;;5020663;28;20206;-77
2023/12/15 13:35:31;;;;;;;2.17;1.75;;;7.20;99.90;;;;;;5021339;28;20218;-77
2023/12/15 13:37:58;;;;;;;2.50;2.10;;;7.20;99.90;;;;;;5021700;28;20601;-77
2023/12/15 13:40:26;;;;;;;2.53;2.00;;;7.10;99.90;;;;;;5017286;28;20215;-78
2023/12/15 13:42:53;;;;;;;2.00;1.80;;;7.00;99.90;;;;;;5018654;28;20568;-77
2023/12/15 13:45:21;;;;;;;8.02;2.13;;;7.00;99.90;;;;;;5012506;28;20214;-76
2023/12/15 13:47:48;;;;;;;2.05;1.77;;;7.00;99.90;;;;;;5012087;28;20341;-76
2023/12/15 13:50:16;;;;;;;2.28;2.00;;;7.10;99.90;;;;;;5012058;28;20320;-77
2023/12/15 13:52:44;;;;;;;2.25;1.98;;;7.10;99.90;;;;;;5022949;28;20208;-77
2023/12/15 13:55:11;;;;;;;2.25;1.98;;;7.00;99.90;;;;;;5012448;28;20225;-77
2023/12/15 13:57:39;;;;;;;1.83;1.60;;;7.10;99.90;;;;;;5006487;28;20231;-79
2023/12/15 14:00:08;;;;;;;1.30;1.20;;;7.00;99.90;;;;;;5004035;28;20211;-77
2023/12/15 14:02:36;;;;;;;1.50;1.40;;;7.00;99.90;;;;;;5005125;28;20238;-76
2023/12/15 14:05:03;;;;;;;2.20;1.70;;;7.00;99.90;;;;;;4997483;28;20210;-77
2023/12/15 14:07:30;;;;;;;1.77;1.65;;;6.90;99.90;;;;;;5003262;28;20203;-77
2023/12/15 14:09:57;;;;;;;3.45;1.75;;;6.90;99.90;;;;;;4996761;28;20249;-76
2023/12/15 14:12:25;;;;;;;1.77;1.30;;;7.00;99.90;;;;;;4996679;28;20226;-79
2023/12/15 14:14:54;;;;;;;1.58;1.48;;;6.90;99.90;;;;;;5008725;28;20310;-78
2023/12/15 14:17:21;;;;;;;2.78;2.25;;;6.90;99.90;;;;;;5002303;28;20207;-80
2023/12/15 14:19:47;;;;;;;1.83;1.67;;;6.90;99.90;;;;;;5000292;28;20299;-79
2023/12/15 14:22:16;;;;;;;2.08;1.52;;;6.90;99.90;;;;;;5008139;28;20285;-79
2023/12/15 14:24:44;;;;;;;2.00;1.30;;;6.80;99.90;;;;;;5004540;28;20226;-79
2023/12/15 14:27:11;;;;;;;1.27;1.17;;;6.70;99.90;;;;;;5010065;28;20206;-79
2023/12/15 14:29:44;;;;;;;1.67;1.58;;;6.70;99.90;;;;;;5006136;28;20203;-79
2023/12/15 14:32:13;;;;;;;1.42;1.33;;;6.70;99.90;;;;;;5007405;28;20226;-79
2023/12/15 14:34:48;;;;;;;1.50;1.35;;;6.60;99.90;;;;;;4998371;28;20231;-81
2023/12/15 14:37:22;;;;;;;3.05;1.75;;;6.70;99.90;;;;;;5007993;28;20272;-80
2023/12/15 14:40:03;;;;;;;1.70;1.60;;;6.70;99.90;;;;;;4990275;28;20211;-80
2023/12/15 14:46:58;;;;;;;1.60;1.50;;;6.70;99.90;;;;;;4986443;28;20195;-80
2023/12/15 14:49:39;;;;;;;1.50;1.33;;;6.60;99.90;;;;;;4973835;28;20568;-79
2023/12/15 14:52:13;;;;;;;1.27;1.10;;;6.60;99.90;;;;;;4998385;28;20237;-80
2023/12/15 14:54:57;;;;;;;1.65;1.20;;;6.60;99.90;;;;;;4997129;28;20208;-80
2023/12/15 14:57:44;;;;;;;1.45;1.30;;;6.60;99.90;;;;;;4995636;28;20222;-81
2023/12/15 15:00:50;;;;;;;1.30;1.08;;;6.60;99.90;;;;;;4995026;28;20211;-80
2023/12/15 15:04:00;;;;;;;1.35;1.10;;;6.50;99.90;;;;;;4986585;28;20270;-79
2023/12/15 15:06:32;;;;;;;1.25;1.15;;;6.60;99.90;;;;;;4995178;28;20586;-79
2023/12/15 15:09:07;;;;;;;1.58;1.27;;;6.50;99.90;;;;;;4993403;28;20203;-79
2023/12/15 15:11:37;;;;;;;1.52;1.40;;;6.50;99.90;;;;;;4994816;28;20226;-80
2023/12/15 15:14:13;;;;;;;3.97;1.40;;;6.60;99.90;;;;;;4989086;28;20211;-80
2023/12/15 15:16:47;;;;;;;1.45;1.30;;;6.50;99.90;;;;;;4993736;28;20224;-78
2023/12/15 15:19:26;;;;;;;1.20;1.10;;;6.50;99.90;;;;;;5006703;28;20215;-76
2023/12/15 15:24:51;;;;;;;1.42;1.33;;;6.30;99.90;;;;;;5009824;28;20229;-78
2023/12/15 15:27:34;;;;;;;1.80;1.42;;;6.30;99.90;;;;;;5017930;28;20221;-78
2023/12/15 15:30:29;;;;;;;1.40;1.20;;;6.30;99.90;;;;;;5017352;28;20202;-77
2023/12/15 15:33:02;;;;;;;3.58;1.38;;;6.30;99.90;;;;;;5013824;28;20223;-77
2023/12/15 15:35:30;;;;;;;2.13;1.67;;;6.30;99.90;;;;;;5013004;28;20222;-75
2023/12/15 15:38:11;;;;;;;1.40;1.30;;;6.20;99.90;;;;;;5012621;28;20208;-77
2023/12/15 15:40:41;;;;;;;1.10;1.00;;;6.40;99.90;;;;;;5002819;28;20240;-74
2023/12/15 15:43:12;;;;;;;1.27;1.17;;;6.20;99.90;;;;;;5005090;28;20219;-78
2023/12/15 15:46:00;;;;;;;1.75;1.65;;;6.20;99.90;;;;;;5008199;28;20207;-81
2023/12/15 15:49:03;;;;;;;2.83;1.27;;;6.20;99.90;;;;;;5005772;28;20217;-79
2023/12/15 15:54:25;;;;;;;1.33;0.90;;;6.20;99.90;;;;;;4999810;28;20215;-77
2023/12/15 15:57:12;;;;;;;2.25;1.90;;;5.80;99.90;;;;;;5003896;28;20460;-78
2023/12/15 15:59:42;;;;;;;1.92;1.30;;;6.00;99.90;;;;;;5005907;28;20210;-78
2023/12/15 16:02:12;;;;;;;1.55;1.45;;;5.90;99.90;;;;;;5005305;28;20227;-78
2023/12/15 16:04:43;;;;;;;1.70;1.27;;;5.80;99.90;;;;;;5007124;28;20289;-77
2023/12/15 16:07:10;;;;;;;2.45;1.50;;;5.80;99.90;;;;;;4996025;28;20293;-80
2023/12/15 16:09:39;;;;;;;1.95;1.75;;;5.70;99.90;;;;;;5003540;28;20620;-76
2023/12/15 16:12:09;;;;;;;1.40;1.30;;;5.60;99.90;;;;;;5003541;28;20285;-77
2023/12/15 16:14:37;;;;;;;1.50;1.25;;;5.50;99.90;;;;;;5007463;28;20202;-76
2023/12/15 16:17:04;;;;;;;2.25;1.35;;;5.50;99.90;;;;;;5005468;28;20273;-76
2023/12/15 16:19:31;;;;;;;1.80;1.70;;;5.40;99.90;;;;;;5006752;28;20211;-75
2023/12/15 16:21:58;;;;;;;3.13;1.48;;;5.40;99.90;;;;;;5005729;28;20719;-77
2023/12/15 16:24:24;;;;;;;2.25;1.83;;;5.40;99.90;;;;;;4994990;28;20210;-76
2023/12/15 16:26:59;;;;;;;1.70;1.60;;;5.30;99.90;;;;;;4994954;28;20210;-76
2023/12/15 16:29:26;;;;;;;1.65;1.35;;;5.40;99.90;;;;;;4994172;28;20218;-77
2023/12/15 16:31:53;;;;;;;1.55;1.45;;;5.40;99.90;;;;;;4991595;28;20228;-76
2023/12/15 16:34:20;;;;;;;1.88;1.48;;;5.40;99.90;;;;;;4996315;28;20210;-77
2023/12/15 16:36:47;;;;;;;2.03;1.70;;;5.40;99.90;;;;;;4997079;28;22924;-76
2023/12/15 16:39:16;;;;;;;2.28;1.98;;;5.40;99.90;;;;;;5008049;28;20207;-75
2023/12/15 16:41:51;;;;;;;2.80;2.25;;;5.40;99.90;;;;;;5002052;28;20689;-78
2023/12/15 16:44:32;;;;;;;1.60;1.50;;;5.40;99.90;;;;;;4998970;28;20249;-77
2023/12/15 16:46:58;;;;;;;2.17;2.00;;;5.40;99.90;;;;;;4998941;28;20208;-76
2023/12/15 16:49:28;;;;;;;3.10;2.42;;;5.40;99.90;;;;;;5001973;28;20210;-79
2023/12/15 16:51:55;;;;;;;3.55;2.20;;;5.50;99.90;;;;;;4998818;28;20258;-77
2023/12/15 16:54:23;;;;;;;2.97;1.85;;;5.40;99.90;;;;;;4999602;28;20214;-77
2023/12/15 16:56:58;;;;;;;1.98;1.55;;;5.50;99.90;;;;;;5005690;28;20226;-77
2023/12/15 16:59:26;;;;;;;2.45;2.25;;;5.50;99.90;;;;;;5003780;28;20229;-77
2023/12/15 17:01:59;;;;;;;3.38;2.50;;;5.60;99.90;;;;;;5010516;28;20282;-77
2023/12/15 17:04:26;;;;;;;3.35;1.75;;;5.60;99.90;;;;;;4999364;28;20210;-77
2023/12/15 17:06:55;;;;;;;4.32;1.60;;;5.50;99.90;;;;;;5008277;28;20210;-75
2023/12/15 17:09:32;;;;;;;1.70;1.60;;;5.50;99.90;;;;;;5018529;28;20218;-77
2023/12/15 17:11:59;;;;;;;1.88;1.77;;;5.50;99.90;;;;;;5007824;28;20230;-76
2023/12/15 17:14:26;;;;;;;2.50;2.28;;;5.50;99.90;;;;;;5007026;28;20214;-77
2023/12/15 17:16:54;;;;;;;4.10;2.08;;;5.50;99.90;;;;;;4995473;28;20251;-75
2023/12/15 17:19:21;;;;;;;3.38;2.25;;;5.60;99.90;;;;;;5001406;28;20226;-76
2023/12/15 17:21:49;;;;;;;7.93;2.47;;;5.60;99.90;;;;;;4998236;28;20230;-76
2023/12/15 17:24:17;;;;;;;2.20;1.80;;;5.50;99.90;;;;;;4992520;28;20261;-76
2023/12/15 17:26:43;;;;;;;8.30;2.85;;;5.60;99.90;;;;;;4997914;28;20687;-76
2023/12/15 17:29:10;;;;;;;6.03;2.00;;;5.50;99.90;;;;;;5004601;28;20211;-77
2023/12/15 17:31:40;;;;;;;3.97;1.75;;;5.50;99.90;;;;;;5005528;28;20237;-77
2023/12/15 17:34:08;;;;;;;2.35;2.15;;;5.50;99.90;;;;;;5003740;28;20208;-77
2023/12/15 17:36:37;;;;;;;2.67;2.40;;;5.50;99.90;;;;;;5004551;28;20241;-76
2023/12/15 17:39:04;;;;;;;2.60;1.80;;;5.50;99.90;;;;;;5002915;28;20218;-78
2023/12/15 17:41:31;;;;;;;2.08;1.90;;;5.50;99.90;;;;;;5006399;28;20230;-77